sensor_id;sensor_type;location;lat;lon;timestamp;temperature;humidity
65826;DHT22;52586;-43.152;172.732;2023-04-24T00:01:42;19.00;53.80
65826;DHT22;52586;-43.152;172.732;2023-04-24T00:04:13;19.10;53.70
65826;DHT22;52586;-43.152;172.732;2023-04-24T00:06:44;19.10;53.60
65826;DHT22;52586;-43.152;172.732;2023-04-24T00:09:17;19.10;53.50
65826;DHT22;52586;-43.152;172.732;2023-04-24T00:11:49;19.10;53.30
65826;DHT22;52586;-43.152;172.732;2023-04-24T00:14:20;19.10;53.00
65826;DHT22;52586;-43.152;172.732;2023-04-24T00:16:51;19.10;52.90
65826;DHT22;52586;-43.152;172.732;2023-04-24T00:19:21;19.20;52.90
65826;DHT22;52586;-43.152;172.732;2023-04-24T00:21:52;19.20;52.80
65826;DHT22;52586;-43.152;172.732;2023-04-24T00:24:23;19.20;52.70
65826;DHT22;52586;-43.152;172.732;2023-04-24T00:26:55;19.20;52.80
65826;DHT22;52586;-43.152;172.732;2023-04-24T00:29:26;19.20;52.80
65826;DHT22;52586;-43.152;172.732;2023-04-24T00:31:57;19.20;52.90
65826;DHT22;52586;-43.152;172.732;2023-04-24T00:34:27;19.20;52.80
65826;DHT22;52586;-43.152;172.732;2023-04-24T00:37:00;19.20;52.70
65826;DHT22;52586;-43.152;172.732;2023-04-24T00:39:30;19.30;52.80
65826;DHT22;52586;-43.152;172.732;2023-04-24T00:42:03;19.30;52.80
65826;DHT22;52586;-43.152;172.732;2023-04-24T00:44:34;19.30;52.90
65826;DHT22;52586;-43.152;172.732;2023-04-24T00:47:05;19.30;52.80
65826;DHT22;52586;-43.152;172.732;2023-04-24T00:49:36;19.30;52.80
65826;DHT22;52586;-43.152;172.732;2023-04-24T00:52:06;19.30;52.80
65826;DHT22;52586;-43.152;172.732;2023-04-24T00:54:37;19.40;52.70
65826;DHT22;52586;-43.152;172.732;2023-04-24T00:57:10;19.40;53.30
65826;DHT22;52586;-43.152;172.732;2023-04-24T00:59:41;19.40;52.70
65826;DHT22;52586;-43.152;172.732;2023-04-24T01:02:12;19.40;52.60
65826;DHT22;52586;-43.152;172.732;2023-04-24T01:04:43;19.40;52.60
65826;DHT22;52586;-43.152;172.732;2023-04-24T01:07:14;19.40;52.60
65826;DHT22;52586;-43.152;172.732;2023-04-24T01:09:46;19.40;52.50
65826;DHT22;52586;-43.152;172.732;2023-04-24T01:12:21;19.50;52.60
65826;DHT22;52586;-43.152;172.732;2023-04-24T01:14:51;19.50;52.50
65826;DHT22;52586;-43.152;172.732;2023-04-24T01:17:22;19.50;52.50
65826;DHT22;52586;-43.152;172.732;2023-04-24T01:19:53;19.50;52.40
65826;DHT22;52586;-43.152;172.732;2023-04-24T01:22:26;19.50;52.40
65826;DHT22;52586;-43.152;172.732;2023-04-24T01:24:57;19.50;52.40
65826;DHT22;52586;-43.152;172.732;2023-04-24T01:27:27;19.60;53.00
65826;DHT22;52586;-43.152;172.732;2023-04-24T01:30:00;19.50;52.40
65826;DHT22;52586;-43.152;172.732;2023-04-24T01:32:31;19.60;52.40
65826;DHT22;52586;-43.152;172.732;2023-04-24T01:35:02;19.60;52.30
65826;DHT22;52586;-43.152;172.732;2023-04-24T01:37:35;19.60;52.90
65826;DHT22;52586;-43.152;172.732;2023-04-24T01:40:07;19.60;52.30
65826;DHT22;52586;-43.152;172.732;2023-04-24T01:42:39;19.60;52.30
65826;DHT22;52586;-43.152;172.732;2023-04-24T01:45:12;19.60;52.20
65826;DHT22;52586;-43.152;172.732;2023-04-24T01:47:43;19.70;52.40
65826;DHT22;52586;-43.152;172.732;2023-04-24T01:50:14;19.70;52.20
65826;DHT22;52586;-43.152;172.732;2023-04-24T01:52:46;19.70;52.10
65826;DHT22;52586;-43.152;172.732;2023-04-24T01:55:17;19.70;52.10
65826;DHT22;52586;-43.152;172.732;2023-04-24T01:57:48;19.70;52.10
65826;DHT22;52586;-43.152;172.732;2023-04-24T02:00:19;19.70;52.00
65826;DHT22;52586;-43.152;172.732;2023-04-24T02:02:49;19.80;52.00
65826;DHT22;52586;-43.152;172.732;2023-04-24T02:05:20;19.80;52.10
65826;DHT22;52586;-43.152;172.732;2023-04-24T02:07:53;19.80;52.10
65826;DHT22;52586;-43.152;172.732;2023-04-24T02:10:23;19.80;52.10
65826;DHT22;52586;-43.152;172.732;2023-04-24T02:12:54;19.80;52.10
65826;DHT22;52586;-43.152;172.732;2023-04-24T02:15:27;19.80;52.20
65826;DHT22;52586;-43.152;172.732;2023-04-24T02:17:58;19.80;52.20
65826;DHT22;52586;-43.152;172.732;2023-04-24T02:20:29;19.90;52.40
65826;DHT22;52586;-43.152;172.732;2023-04-24T02:23:03;19.90;52.40
65826;DHT22;52586;-43.152;172.732;2023-04-24T02:25:34;19.90;52.30
65826;DHT22;52586;-43.152;172.732;2023-04-24T02:28:05;19.90;52.30
65826;DHT22;52586;-43.152;172.732;2023-04-24T02:30:36;20.00;52.40
65826;DHT22;52586;-43.152;172.732;2023-04-24T02:33:07;20.00;52.50
65826;DHT22;52586;-43.152;172.732;2023-04-24T02:35:37;20.00;52.50
65826;DHT22;52586;-43.152;172.732;2023-04-24T02:38:10;20.00;52.50
65826;DHT22;52586;-43.152;172.732;2023-04-24T02:40:40;20.00;52.50
65826;DHT22;52586;-43.152;172.732;2023-04-24T02:43:11;20.10;52.60
65826;DHT22;52586;-43.152;172.732;2023-04-24T02:45:41;20.10;52.60
65826;DHT22;52586;-43.152;172.732;2023-04-24T02:48:12;20.10;52.60
65826;DHT22;52586;-43.152;172.732;2023-04-24T02:50:43;20.10;52.50
65826;DHT22;52586;-43.152;172.732;2023-04-24T02:53:15;20.10;52.50
65826;DHT22;52586;-43.152;172.732;2023-04-24T02:55:46;20.10;52.50
65826;DHT22;52586;-43.152;172.732;2023-04-24T02:58:17;20.20;52.60
65826;DHT22;52586;-43.152;172.732;2023-04-24T03:00:48;20.20;52.50
65826;DHT22;52586;-43.152;172.732;2023-04-24T03:03:18;20.20;52.50
65826;DHT22;52586;-43.152;172.732;2023-04-24T03:05:49;20.20;52.50
65826;DHT22;52586;-43.152;172.732;2023-04-24T03:08:22;20.30;52.50
65826;DHT22;52586;-43.152;172.732;2023-04-24T03:10:53;20.30;52.50
65826;DHT22;52586;-43.152;172.732;2023-04-24T03:13:23;20.30;52.40
65826;DHT22;52586;-43.152;172.732;2023-04-24T03:15:54;20.40;52.40
65826;DHT22;52586;-43.152;172.732;2023-04-24T03:18:25;20.40;52.30
65826;DHT22;52586;-43.152;172.732;2023-04-24T03:20:55;20.40;52.20
65826;DHT22;52586;-43.152;172.732;2023-04-24T03:23:28;20.40;52.20
65826;DHT22;52586;-43.152;172.732;2023-04-24T03:25:58;20.50;52.20
65826;DHT22;52586;-43.152;172.732;2023-04-24T03:28:30;20.40;52.20
65826;DHT22;52586;-43.152;172.732;2023-04-24T03:31:00;20.40;52.10
65826;DHT22;52586;-43.152;172.732;2023-04-24T03:33:35;20.50;52.20
65826;DHT22;52586;-43.152;172.732;2023-04-24T03:36:06;20.50;52.20
65826;DHT22;52586;-43.152;172.732;2023-04-24T03:38:38;20.50;52.20
65826;DHT22;52586;-43.152;172.732;2023-04-24T03:41:09;20.60;52.20
65826;DHT22;52586;-43.152;172.732;2023-04-24T03:43:40;20.60;52.10
65826;DHT22;52586;-43.152;172.732;2023-04-24T03:46:10;20.60;52.10
65826;DHT22;52586;-43.152;172.732;2023-04-24T03:48:41;20.60;52.10
65826;DHT22;52586;-43.152;172.732;2023-04-24T03:51:12;20.70;52.10
65826;DHT22;52586;-43.152;172.732;2023-04-24T03:53:44;20.70;52.00
65826;DHT22;52586;-43.152;172.732;2023-04-24T03:56:15;20.70;52.00
65826;DHT22;52586;-43.152;172.732;2023-04-24T03:58:46;20.80;51.90
65826;DHT22;52586;-43.152;172.732;2023-04-24T04:01:16;20.80;51.90
65826;DHT22;52586;-43.152;172.732;2023-04-24T04:03:48;20.80;51.90
65826;DHT22;52586;-43.152;172.732;2023-04-24T04:06:19;20.80;51.90
65826;DHT22;52586;-43.152;172.732;2023-04-24T04:08:51;20.90;51.90
65826;DHT22;52586;-43.152;172.732;2023-04-24T04:11:22;20.90;51.90
65826;DHT22;52586;-43.152;172.732;2023-04-24T04:13:52;20.80;51.80
65826;DHT22;52586;-43.152;172.732;2023-04-24T04:16:23;20.90;51.90
65826;DHT22;52586;-43.152;172.732;2023-04-24T04:18:53;20.90;51.90
65826;DHT22;52586;-43.152;172.732;2023-04-24T04:21:25;20.90;51.90
65826;DHT22;52586;-43.152;172.732;2023-04-24T04:23:57;20.90;51.80
65826;DHT22;52586;-43.152;172.732;2023-04-24T04:26:28;21.00;51.80
65826;DHT22;52586;-43.152;172.732;2023-04-24T04:29:00;21.00;51.70
65826;DHT22;52586;-43.152;172.732;2023-04-24T04:31:31;21.00;51.80
65826;DHT22;52586;-43.152;172.732;2023-04-24T04:34:01;21.00;51.80
65826;DHT22;52586;-43.152;172.732;2023-04-24T04:36:32;21.00;51.80
65826;DHT22;52586;-43.152;172.732;2023-04-24T04:39:06;21.10;51.80
65826;DHT22;52586;-43.152;172.732;2023-04-24T04:41:37;21.10;51.80
65826;DHT22;52586;-43.152;172.732;2023-04-24T04:44:08;21.10;51.80
65826;DHT22;52586;-43.152;172.732;2023-04-24T04:46:38;21.10;51.80
65826;DHT22;52586;-43.152;172.732;2023-04-24T04:49:09;21.10;51.80
65826;DHT22;52586;-43.152;172.732;2023-04-24T04:51:40;21.10;51.80
65826;DHT22;52586;-43.152;172.732;2023-04-24T04:54:12;21.20;51.90
65826;DHT22;52586;-43.152;172.732;2023-04-24T04:56:43;21.20;51.90
65826;DHT22;52586;-43.152;172.732;2023-04-24T04:59:14;21.20;51.90
65826;DHT22;52586;-43.152;172.732;2023-04-24T05:01:44;21.20;51.90
65826;DHT22;52586;-43.152;172.732;2023-04-24T05:04:15;21.20;51.90
65826;DHT22;52586;-43.152;172.732;2023-04-24T05:06:45;21.20;51.90
65826;DHT22;52586;-43.152;172.732;2023-04-24T05:09:20;21.20;51.90
65826;DHT22;52586;-43.152;172.732;2023-04-24T05:11:51;21.20;51.90
65826;DHT22;52586;-43.152;172.732;2023-04-24T05:14:22;21.20;51.90
65826;DHT22;52586;-43.152;172.732;2023-04-24T05:16:52;21.20;51.90
65826;DHT22;52586;-43.152;172.732;2023-04-24T05:19:23;21.20;51.90
65826;DHT22;52586;-43.152;172.732;2023-04-24T05:21:53;21.20;52.00
65826;DHT22;52586;-43.152;172.732;2023-04-24T05:24:26;21.20;51.90
65826;DHT22;52586;-43.152;172.732;2023-04-24T05:26:57;21.20;52.00
65826;DHT22;52586;-43.152;172.732;2023-04-24T05:29:28;21.20;51.90
65826;DHT22;52586;-43.152;172.732;2023-04-24T05:31:59;21.20;51.90
65826;DHT22;52586;-43.152;172.732;2023-04-24T05:34:30;21.20;51.90
65826;DHT22;52586;-43.152;172.732;2023-04-24T05:37:00;21.20;51.90
65826;DHT22;52586;-43.152;172.732;2023-04-24T05:39:33;21.20;51.80
65826;DHT22;52586;-43.152;172.732;2023-04-24T05:42:04;21.20;51.90
65826;DHT22;52586;-43.152;172.732;2023-04-24T05:44:34;21.20;51.90
65826;DHT22;52586;-43.152;172.732;2023-04-24T05:47:05;21.20;51.90
65826;DHT22;52586;-43.152;172.732;2023-04-24T05:49:36;21.20;51.90
65826;DHT22;52586;-43.152;172.732;2023-04-24T05:52:06;21.10;51.90
65826;DHT22;52586;-43.152;172.732;2023-04-24T05:54:39;21.10;52.00
65826;DHT22;52586;-43.152;172.732;2023-04-24T05:57:09;21.10;52.00
65826;DHT22;52586;-43.152;172.732;2023-04-24T05:59:40;21.10;52.00
65826;DHT22;52586;-43.152;172.732;2023-04-24T06:02:11;21.10;51.90
65826;DHT22;52586;-43.152;172.732;2023-04-24T06:04:41;21.10;51.90
65826;DHT22;52586;-43.152;172.732;2023-04-24T06:07:12;21.10;51.80
65826;DHT22;52586;-43.152;172.732;2023-04-24T06:09:45;21.00;51.80
65826;DHT22;52586;-43.152;172.732;2023-04-24T06:12:15;21.00;51.80
65826;DHT22;52586;-43.152;172.732;2023-04-24T06:14:46;21.00;51.80
65826;DHT22;52586;-43.152;172.732;2023-04-24T06:17:17;21.00;51.70
65826;DHT22;52586;-43.152;172.732;2023-04-24T06:19:47;21.00;51.70
65826;DHT22;52586;-43.152;172.732;2023-04-24T06:22:18;20.90;51.60
65826;DHT22;52586;-43.152;172.732;2023-04-24T06:24:50;20.90;51.60
65826;DHT22;52586;-43.152;172.732;2023-04-24T06:27:21;20.90;51.70
65826;DHT22;52586;-43.152;172.732;2023-04-24T06:29:52;20.90;51.70
65826;DHT22;52586;-43.152;172.732;2023-04-24T06:32:24;20.90;51.70
65826;DHT22;52586;-43.152;172.732;2023-04-24T06:34:54;20.80;51.70
65826;DHT22;52586;-43.152;172.732;2023-04-24T06:37:25;20.80;51.70
65826;DHT22;52586;-43.152;172.732;2023-04-24T06:39:58;20.90;51.80
65826;DHT22;52586;-43.152;172.732;2023-04-24T06:42:28;20.80;51.70
65826;DHT22;52586;-43.152;172.732;2023-04-24T06:44:59;20.80;51.70
65826;DHT22;52586;-43.152;172.732;2023-04-24T06:47:30;20.80;51.60
65826;DHT22;52586;-43.152;172.732;2023-04-24T06:50:00;20.80;51.50
65826;DHT22;52586;-43.152;172.732;2023-04-24T06:52:31;20.70;51.50
65826;DHT22;52586;-43.152;172.732;2023-04-24T06:55:05;20.70;51.50
65826;DHT22;52586;-43.152;172.732;2023-04-24T06:57:36;20.70;51.50
65826;DHT22;52586;-43.152;172.732;2023-04-24T07:00:07;20.70;51.50
65826;DHT22;52586;-43.152;172.732;2023-04-24T07:02:38;20.60;51.50
65826;DHT22;52586;-43.152;172.732;2023-04-24T07:05:09;20.60;51.60
65826;DHT22;52586;-43.152;172.732;2023-04-24T07:07:40;20.60;51.50
65826;DHT22;52586;-43.152;172.732;2023-04-24T07:10:13;20.50;51.50
65826;DHT22;52586;-43.152;172.732;2023-04-24T07:12:43;20.50;51.60
65826;DHT22;52586;-43.152;172.732;2023-04-24T07:15:14;20.50;51.60
65826;DHT22;52586;-43.152;172.732;2023-04-24T07:17:45;20.50;51.60
65826;DHT22;52586;-43.152;172.732;2023-04-24T07:20:15;20.50;51.60
65826;DHT22;52586;-43.152;172.732;2023-04-24T07:22:46;20.50;51.60
65826;DHT22;52586;-43.152;172.732;2023-04-24T07:25:19;20.50;51.60
65826;DHT22;52586;-43.152;172.732;2023-04-24T07:27:50;20.50;51.50
65826;DHT22;52586;-43.152;172.732;2023-04-24T07:30:20;20.40;51.50
65826;DHT22;52586;-43.152;172.732;2023-04-24T07:32:51;20.40;51.50
65826;DHT22;52586;-43.152;172.732;2023-04-24T07:35:21;20.40;51.50
65826;DHT22;52586;-43.152;172.732;2023-04-24T07:37:53;20.30;51.50
65826;DHT22;52586;-43.152;172.732;2023-04-24T07:40:26;20.30;51.50
65826;DHT22;52586;-43.152;172.732;2023-04-24T07:42:57;20.30;51.50
65826;DHT22;52586;-43.152;172.732;2023-04-24T07:45:27;20.30;51.50
65826;DHT22;52586;-43.152;172.732;2023-04-24T07:47:58;20.20;51.50
65826;DHT22;52586;-43.152;172.732;2023-04-24T07:50:29;20.20;51.50
65826;DHT22;52586;-43.152;172.732;2023-04-24T07:53:00;20.20;51.50
65826;DHT22;52586;-43.152;172.732;2023-04-24T07:55:32;20.20;51.50
65826;DHT22;52586;-43.152;172.732;2023-04-24T07:58:03;20.20;51.50
65826;DHT22;52586;-43.152;172.732;2023-04-24T08:00:34;20.10;51.40
65826;DHT22;52586;-43.152;172.732;2023-04-24T08:03:04;20.10;51.40
65826;DHT22;52586;-43.152;172.732;2023-04-24T08:05:35;20.10;51.40
65826;DHT22;52586;-43.152;172.732;2023-04-24T08:08:06;20.10;52.10
65826;DHT22;52586;-43.152;172.732;2023-04-24T08:10:38;20.10;51.50
65826;DHT22;52586;-43.152;172.732;2023-04-24T08:13:09;20.00;51.40
65826;DHT22;52586;-43.152;172.732;2023-04-24T08:15:40;20.00;51.40
65826;DHT22;52586;-43.152;172.732;2023-04-24T08:18:11;20.00;51.40
65826;DHT22;52586;-43.152;172.732;2023-04-24T08:20:43;19.90;51.40
65826;DHT22;52586;-43.152;172.732;2023-04-24T08:23:14;19.90;51.40
65826;DHT22;52586;-43.152;172.732;2023-04-24T08:25:46;19.90;51.50
65826;DHT22;52586;-43.152;172.732;2023-04-24T08:28:17;19.90;51.50
65826;DHT22;52586;-43.152;172.732;2023-04-24T08:30:48;19.90;51.50
65826;DHT22;52586;-43.152;172.732;2023-04-24T08:33:22;19.80;51.50
65826;DHT22;52586;-43.152;172.732;2023-04-24T08:35:53;19.80;51.50
65826;DHT22;52586;-43.152;172.732;2023-04-24T08:38:24;19.80;51.40
65826;DHT22;52586;-43.152;172.732;2023-04-24T08:40:57;19.80;51.50
65826;DHT22;52586;-43.152;172.732;2023-04-24T08:43:29;19.80;51.50
65826;DHT22;52586;-43.152;172.732;2023-04-24T08:46:00;19.80;51.50
65826;DHT22;52586;-43.152;172.732;2023-04-24T08:48:31;19.70;51.40
65826;DHT22;52586;-43.152;172.732;2023-04-24T08:51:03;19.70;51.40
65826;DHT22;52586;-43.152;172.732;2023-04-24T08:53:36;19.70;51.40
65826;DHT22;52586;-43.152;172.732;2023-04-24T08:56:09;19.70;51.40
65826;DHT22;52586;-43.152;172.732;2023-04-24T08:58:40;19.60;51.40
65826;DHT22;52586;-43.152;172.732;2023-04-24T09:01:11;19.60;51.40
65826;DHT22;52586;-43.152;172.732;2023-04-24T09:03:42;19.60;51.40
65826;DHT22;52586;-43.152;172.732;2023-04-24T09:06:13;19.60;51.50
65826;DHT22;52586;-43.152;172.732;2023-04-24T09:08:45;19.60;51.50
65826;DHT22;52586;-43.152;172.732;2023-04-24T09:11:18;19.50;51.50
65826;DHT22;52586;-43.152;172.732;2023-04-24T09:13:49;19.50;51.50
65826;DHT22;52586;-43.152;172.732;2023-04-24T09:16:20;19.50;51.50
65826;DHT22;52586;-43.152;172.732;2023-04-24T09:18:52;19.50;51.50
65826;DHT22;52586;-43.152;172.732;2023-04-24T09:21:22;19.50;51.50
65826;DHT22;52586;-43.152;172.732;2023-04-24T09:24:00;19.40;51.40
65826;DHT22;52586;-43.152;172.732;2023-04-24T09:26:35;19.40;51.40
65826;DHT22;52586;-43.152;172.732;2023-04-24T09:29:06;19.40;51.40
65826;DHT22;52586;-43.152;172.732;2023-04-24T09:31:36;19.40;51.50
65826;DHT22;52586;-43.152;172.732;2023-04-24T09:34:07;19.30;51.50
65826;DHT22;52586;-43.152;172.732;2023-04-24T09:36:38;19.30;51.50
65826;DHT22;52586;-43.152;172.732;2023-04-24T09:39:10;19.30;51.50
65826;DHT22;52586;-43.152;172.732;2023-04-24T09:41:47;19.30;52.10
65826;DHT22;52586;-43.152;172.732;2023-04-24T09:44:18;19.20;51.50
65826;DHT22;52586;-43.152;172.732;2023-04-24T09:46:51;19.20;51.50
65826;DHT22;52586;-43.152;172.732;2023-04-24T09:49:23;19.20;51.50
65826;DHT22;52586;-43.152;172.732;2023-04-24T09:52:03;19.20;51.50
65826;DHT22;52586;-43.152;172.732;2023-04-24T09:54:34;19.10;51.50
65826;DHT22;52586;-43.152;172.732;2023-04-24T09:57:08;19.10;51.50
65826;DHT22;52586;-43.152;172.732;2023-04-24T09:59:45;19.10;51.50
65826;DHT22;52586;-43.152;172.732;2023-04-24T10:02:19;19.10;51.50
65826;DHT22;52586;-43.152;172.732;2023-04-24T10:04:56;19.10;51.50
65826;DHT22;52586;-43.152;172.732;2023-04-24T10:07:27;19.10;51.50
65826;DHT22;52586;-43.152;172.732;2023-04-24T10:09:58;19.00;51.40
65826;DHT22;52586;-43.152;172.732;2023-04-24T10:12:31;19.00;51.50
65826;DHT22;52586;-43.152;172.732;2023-04-24T10:15:02;19.00;51.50
65826;DHT22;52586;-43.152;172.732;2023-04-24T10:17:34;19.00;51.50
65826;DHT22;52586;-43.152;172.732;2023-04-24T10:20:06;18.90;51.40
65826;DHT22;52586;-43.152;172.732;2023-04-24T10:22:37;18.90;51.40
65826;DHT22;52586;-43.152;172.732;2023-04-24T10:25:08;18.90;51.40
65826;DHT22;52586;-43.152;172.732;2023-04-24T10:27:41;18.90;51.50
65826;DHT22;52586;-43.152;172.732;2023-04-24T10:30:14;18.90;51.40
65826;DHT22;52586;-43.152;172.732;2023-04-24T10:32:44;18.80;51.40
65826;DHT22;52586;-43.152;172.732;2023-04-24T10:35:16;18.80;51.40
65826;DHT22;52586;-43.152;172.732;2023-04-24T10:37:52;18.80;51.40
65826;DHT22;52586;-43.152;172.732;2023-04-24T10:40:27;18.80;51.50
65826;DHT22;52586;-43.152;172.732;2023-04-24T10:43:03;18.80;51.40
65826;DHT22;52586;-43.152;172.732;2023-04-24T10:45:35;18.80;51.40
65826;DHT22;52586;-43.152;172.732;2023-04-24T10:48:07;18.80;51.50
65826;DHT22;52586;-43.152;172.732;2023-04-24T10:50:45;18.70;51.40
65826;DHT22;52586;-43.152;172.732;2023-04-24T10:53:18;18.80;51.50
65826;DHT22;52586;-43.152;172.732;2023-04-24T10:55:51;18.70;52.00
65826;DHT22;52586;-43.152;172.732;2023-04-24T10:58:35;18.70;51.40
65826;DHT22;52586;-43.152;172.732;2023-04-24T11:01:06;18.70;51.40
65826;DHT22;52586;-43.152;172.732;2023-04-24T11:03:36;18.60;51.40
65826;DHT22;52586;-43.152;172.732;2023-04-24T11:06:09;18.60;51.40
65826;DHT22;52586;-43.152;172.732;2023-04-24T11:08:42;18.60;51.40
65826;DHT22;52586;-43.152;172.732;2023-04-24T11:11:13;18.60;51.50
65826;DHT22;52586;-43.152;172.732;2023-04-24T11:14:08;18.60;52.10
65826;DHT22;52586;-43.152;172.732;2023-04-24T11:16:53;18.60;51.50
65826;DHT22;52586;-43.152;172.732;2023-04-24T11:19:25;18.60;51.50
65826;DHT22;52586;-43.152;172.732;2023-04-24T11:21:58;18.60;51.50
65826;DHT22;52586;-43.152;172.732;2023-04-24T11:24:31;18.60;51.50
65826;DHT22;52586;-43.152;172.732;2023-04-24T11:27:09;18.50;51.40
65826;DHT22;52586;-43.152;172.732;2023-04-24T11:29:45;18.50;51.50
65826;DHT22;52586;-43.152;172.732;2023-04-24T11:32:26;18.50;51.50
65826;DHT22;52586;-43.152;172.732;2023-04-24T11:34:57;18.50;51.50
65826;DHT22;52586;-43.152;172.732;2023-04-24T11:37:29;18.50;51.50
65826;DHT22;52586;-43.152;172.732;2023-04-24T11:40:00;18.50;51.50
65826;DHT22;52586;-43.152;172.732;2023-04-24T11:42:35;18.40;51.50
65826;DHT22;52586;-43.152;172.732;2023-04-24T11:45:11;18.40;51.50
65826;DHT22;52586;-43.152;172.732;2023-04-24T11:47:43;18.40;51.50
65826;DHT22;52586;-43.152;172.732;2023-04-24T11:50:14;18.40;51.50
65826;DHT22;52586;-43.152;172.732;2023-04-24T11:52:46;18.40;51.50
65826;DHT22;52586;-43.152;172.732;2023-04-24T11:55:27;18.40;51.60
65826;DHT22;52586;-43.152;172.732;2023-04-24T11:57:59;18.40;51.60
65826;DHT22;52586;-43.152;172.732;2023-04-24T12:00:32;18.40;51.60
65826;DHT22;52586;-43.152;172.732;2023-04-24T12:03:07;18.40;51.60
65826;DHT22;52586;-43.152;172.732;2023-04-24T12:05:38;18.30;51.50
65826;DHT22;52586;-43.152;172.732;2023-04-24T12:08:09;18.30;51.50
65826;DHT22;52586;-43.152;172.732;2023-04-24T12:10:40;18.30;51.50
65826;DHT22;52586;-43.152;172.732;2023-04-24T12:13:11;18.30;51.50
65826;DHT22;52586;-43.152;172.732;2023-04-24T12:15:43;18.30;51.50
65826;DHT22;52586;-43.152;172.732;2023-04-24T12:18:14;18.30;51.60
65826;DHT22;52586;-43.152;172.732;2023-04-24T12:20:45;18.20;51.50
65826;DHT22;52586;-43.152;172.732;2023-04-24T12:23:16;18.20;51.50
65826;DHT22;52586;-43.152;172.732;2023-04-24T12:25:47;18.20;51.50
65826;DHT22;52586;-43.152;172.732;2023-04-24T12:28:17;18.20;51.50
65826;DHT22;52586;-43.152;172.732;2023-04-24T12:30:50;18.20;51.50
65826;DHT22;52586;-43.152;172.732;2023-04-24T12:33:22;18.20;51.50
65826;DHT22;52586;-43.152;172.732;2023-04-24T12:35:53;18.10;51.50
65826;DHT22;52586;-43.152;172.732;2023-04-24T12:38:25;18.10;51.50
65826;DHT22;52586;-43.152;172.732;2023-04-24T12:41:04;18.10;51.60
65826;DHT22;52586;-43.152;172.732;2023-04-24T12:43:35;18.10;51.50
65826;DHT22;52586;-43.152;172.732;2023-04-24T12:46:08;18.10;51.50
65826;DHT22;52586;-43.152;172.732;2023-04-24T12:48:38;18.10;51.50
65826;DHT22;52586;-43.152;172.732;2023-04-24T12:51:09;18.10;51.50
65826;DHT22;52586;-43.152;172.732;2023-04-24T12:53:40;18.10;51.50
65826;DHT22;52586;-43.152;172.732;2023-04-24T12:56:11;18.00;51.50
65826;DHT22;52586;-43.152;172.732;2023-04-24T12:58:42;18.00;51.50
65826;DHT22;52586;-43.152;172.732;2023-04-24T13:01:14;18.00;51.40
65826;DHT22;52586;-43.152;172.732;2023-04-24T13:03:45;18.00;51.40
65826;DHT22;52586;-43.152;172.732;2023-04-24T13:06:15;18.00;51.40
65826;DHT22;52586;-43.152;172.732;2023-04-24T13:08:46;18.00;51.40
65826;DHT22;52586;-43.152;172.732;2023-04-24T13:11:17;17.90;51.40
65826;DHT22;52586;-43.152;172.732;2023-04-24T13:13:47;17.90;51.40
65826;DHT22;52586;-43.152;172.732;2023-04-24T13:16:20;17.90;51.40
65826;DHT22;52586;-43.152;172.732;2023-04-24T13:18:51;17.90;51.40
65826;DHT22;52586;-43.152;172.732;2023-04-24T13:21:21;17.90;51.40
65826;DHT22;52586;-43.152;172.732;2023-04-24T13:23:52;17.90;51.50
65826;DHT22;52586;-43.152;172.732;2023-04-24T13:26:22;17.80;51.40
65826;DHT22;52586;-43.152;172.732;2023-04-24T13:28:53;17.80;51.50
65826;DHT22;52586;-43.152;172.732;2023-04-24T13:31:26;17.80;51.40
65826;DHT22;52586;-43.152;172.732;2023-04-24T13:33:56;17.80;51.40
65826;DHT22;52586;-43.152;172.732;2023-04-24T13:36:27;17.80;51.40
65826;DHT22;52586;-43.152;172.732;2023-04-24T13:38:57;17.80;51.50
65826;DHT22;52586;-43.152;172.732;2023-04-24T13:41:28;17.80;51.40
65826;DHT22;52586;-43.152;172.732;2023-04-24T13:43:59;17.70;51.40
65826;DHT22;52586;-43.152;172.732;2023-04-24T13:46:32;17.70;51.40
65826;DHT22;52586;-43.152;172.732;2023-04-24T13:49:03;17.70;51.40
65826;DHT22;52586;-43.152;172.732;2023-04-24T13:51:34;17.70;51.40
65826;DHT22;52586;-43.152;172.732;2023-04-24T13:54:05;17.70;51.40
65826;DHT22;52586;-43.152;172.732;2023-04-24T13:56:35;17.70;51.50
65826;DHT22;52586;-43.152;172.732;2023-04-24T13:59:06;17.60;51.40
65826;DHT22;52586;-43.152;172.732;2023-04-24T14:01:42;17.60;51.40
65826;DHT22;52586;-43.152;172.732;2023-04-24T14:04:12;17.60;51.40
65826;DHT22;52586;-43.152;172.732;2023-04-24T14:06:43;17.60;51.40
65826;DHT22;52586;-43.152;172.732;2023-04-24T14:09:14;17.60;51.50
65826;DHT22;52586;-43.152;172.732;2023-04-24T14:11:44;17.60;51.40
65826;DHT22;52586;-43.152;172.732;2023-04-24T14:14:15;17.60;51.40
65826;DHT22;52586;-43.152;172.732;2023-04-24T14:16:48;17.50;51.30
65826;DHT22;52586;-43.152;172.732;2023-04-24T14:19:18;17.50;51.30
65826;DHT22;52586;-43.152;172.732;2023-04-24T14:21:49;17.50;51.30
65826;DHT22;52586;-43.152;172.732;2023-04-24T14:24:20;17.50;51.30
65826;DHT22;52586;-43.152;172.732;2023-04-24T14:26:50;17.50;51.30
65826;DHT22;52586;-43.152;172.732;2023-04-24T14:29:21;17.50;51.30
65826;DHT22;52586;-43.152;172.732;2023-04-24T14:31:55;17.50;51.30
65826;DHT22;52586;-43.152;172.732;2023-04-24T14:34:26;17.40;51.30
65826;DHT22;52586;-43.152;172.732;2023-04-24T14:36:56;17.40;51.30
65826;DHT22;52586;-43.152;172.732;2023-04-24T14:39:27;17.40;51.30
65826;DHT22;52586;-43.152;172.732;2023-04-24T14:41:58;17.40;51.30
65826;DHT22;52586;-43.152;172.732;2023-04-24T14:44:29;17.40;51.30
65826;DHT22;52586;-43.152;172.732;2023-04-24T14:47:02;17.40;51.30
65826;DHT22;52586;-43.152;172.732;2023-04-24T14:49:32;17.40;51.30
65826;DHT22;52586;-43.152;172.732;2023-04-24T14:52:03;17.40;51.30
65826;DHT22;52586;-43.152;172.732;2023-04-24T14:54:33;17.30;51.20
65826;DHT22;52586;-43.152;172.732;2023-04-24T14:57:04;17.30;51.30
65826;DHT22;52586;-43.152;172.732;2023-04-24T14:59:35;17.30;51.20
65826;DHT22;52586;-43.152;172.732;2023-04-24T15:02:07;17.30;51.30
65826;DHT22;52586;-43.152;172.732;2023-04-24T15:04:38;17.30;51.20
65826;DHT22;52586;-43.152;172.732;2023-04-24T15:07:09;17.30;51.30
65826;DHT22;52586;-43.152;172.732;2023-04-24T15:09:39;17.20;51.20
65826;DHT22;52586;-43.152;172.732;2023-04-24T15:12:10;17.20;51.20
65826;DHT22;52586;-43.152;172.732;2023-04-24T15:14:41;17.20;51.20